VLVT/VTE METAR and TAF weather

Enter ICAO airport designator
Station Type Date Time Source
VLVT METAR 2019/12/10 06:00 UTC NOAA

VLVT 100600Z 36004KT 8000 NSC 25/08 Q1015 NOSIG


Station Type Date Time Source
VLVT Decoded METAR 2019/12/10 06:00 UTC NOAA

Vientiane, Laos (VLVT) 17-57N 102-34E 171M
Dec 10, 2019 - 01:00 AM EST / 2019.12.10 0600 UTC
Wind: from the N (360 degrees) at 5 MPH (4 KT):0
Visibility: 4 mile(s):0
Temperature: 77 F (25 C)
Dew Point: 46 F (8 C)
Relative Humidity: 33%
Pressure (altimeter): 29.97 in. Hg (1015 hPa)
ob: VLVT 100600Z 36004KT 8000 NSC 25/08 Q1015 NOSIG
cycle: 6

Station Type Date Time Source
VLVT TAF 2019/12/09 18:36 UTC NOAA

TAF VLVT 091700Z 0918/1018 32004KT 5000 BR FEW050

Example: see airport list